Time;durP1;ratioP1;P1;durP2;ratioP2;P2;SDS_P1;SDS_P2;PMS_P1;PMS_P2;Temp;Humidity;BMP_temperature;BMP_pressure;BME280_temperature;BME280_humidity;BME280_pressure;Samples;Min_cycle;Max_cycle;Signal;HPM_P1;HPM_P2
2022/09/22 00:01:04;;;;;;;5.40;4.93;;;9.00;99.90;;;;;;5053738;28;20191;-43
2022/09/22 00:03:32;;;;;;;6.87;4.63;;;8.90;99.90;;;;;;5041947;28;20207;-41
2022/09/22 00:06:01;;;;;;;7.10;4.90;;;8.80;99.90;;;;;;5044252;28;20215;-46
2022/09/22 00:08:31;;;;;;;4.80;4.40;;;8.70;99.90;;;;;;5044771;28;20935;-44
2022/09/22 00:11:04;;;;;;;6.23;4.90;;;8.80;99.90;;;;;;5044221;28;20200;-44
2022/09/22 00:13:33;;;;;;;8.93;5.17;;;8.80;99.90;;;;;;5044045;28;20196;-42
2022/09/22 00:16:02;;;;;;;5.27;4.80;;;8.90;99.90;;;;;;5043751;28;20212;-46
2022/09/22 00:18:29;;;;;;;5.93;4.73;;;8.80;99.90;;;;;;5032197;28;20838;-43
2022/09/22 00:20:56;;;;;;;8.20;5.03;;;8.80;99.90;;;;;;5044595;28;20216;-44
2022/09/22 00:23:25;;;;;;;8.73;5.50;;;8.70;99.90;;;;;;5042584;28;20184;-42
2022/09/22 00:25:52;;;;;;;7.37;4.77;;;8.70;99.90;;;;;;5045512;28;20212;-42
2022/09/22 00:28:20;;;;;;;6.97;5.00;;;8.70;99.90;;;;;;5042553;28;20284;-45
2022/09/22 00:30:48;;;;;;;6.80;5.60;;;8.60;99.90;;;;;;5045901;28;20202;-41
2022/09/22 00:33:15;;;;;;;5.53;4.67;;;8.60;99.90;;;;;;5028107;28;20215;-41
2022/09/22 00:35:42;;;;;;;4.93;4.53;;;8.60;99.90;;;;;;5045530;28;20620;-43
2022/09/22 00:38:09;;;;;;;5.60;4.93;;;8.60;99.90;;;;;;5041454;28;20306;-46
2022/09/22 00:40:37;;;;;;;6.17;4.60;;;8.60;99.90;;;;;;5045329;28;20276;-42
2022/09/22 00:43:19;;;;;;;5.50;4.90;;;8.60;99.90;;;;;;5042357;28;20203;-43
2022/09/22 00:45:51;;;;;;;5.00;4.40;;;8.60;99.90;;;;;;5045502;28;20224;-41
2022/09/22 00:48:21;;;;;;;4.67;4.07;;;8.50;99.90;;;;;;5042260;28;20252;-46
2022/09/22 00:50:49;;;;;;;6.73;4.80;;;8.50;99.90;;;;;;5032827;28;20226;-41
2022/09/22 00:53:18;;;;;;;5.20;3.73;;;8.60;99.90;;;;;;5040491;28;20847;-43
2022/09/22 00:55:49;;;;;;;4.80;4.40;;;8.60;99.90;;;;;;5044361;28;20216;-44
2022/09/22 00:58:18;;;;;;;9.27;5.07;;;8.50;99.90;;;;;;5041078;28;20218;-43
2022/09/22 01:00:46;;;;;;;4.80;4.30;;;8.50;99.90;;;;;;5045353;28;20197;-42
2022/09/22 01:03:18;;;;;;;3.90;3.60;;;8.50;99.90;;;;;;5040058;28;20198;-40
2022/09/22 01:05:48;;;;;;;5.73;4.57;;;8.50;99.90;;;;;;5032516;28;20223;-41
2022/09/22 01:08:16;;;;;;;5.73;4.63;;;8.50;99.90;;;;;;5034727;28;20256;-43
2022/09/22 01:10:44;;;;;;;4.77;4.37;;;8.50;99.90;;;;;;5044831;28;20204;-45
2022/09/22 01:13:23;;;;;;;7.93;4.53;;;8.50;99.90;;;;;;5040239;28;21020;-43
2022/09/22 01:16:06;;;;;;;6.23;4.90;;;8.40;99.90;;;;;;5047241;28;20225;-43
2022/09/22 01:18:43;;;;;;;6.13;4.80;;;8.40;99.90;;;;;;5043741;28;20732;-41
2022/09/22 01:21:31;;;;;;;5.23;4.40;;;8.40;99.90;;;;;;5027738;28;20202;-44
2022/09/22 01:24:25;;;;;;;7.83;4.83;;;8.30;99.90;;;;;;5041301;28;20191;-42
2022/09/22 01:27:15;;;;;;;4.50;4.20;;;8.30;99.90;;;;;;5043757;28;20294;-41
2022/09/22 01:30:06;;;;;;;4.90;4.37;;;8.30;99.90;;;;;;5044526;28;20194;-42
2022/09/22 01:32:41;;;;;;;7.37;4.67;;;8.20;99.90;;;;;;5044434;28;20198;-41
2022/09/22 01:35:17;;;;;;;5.40;4.47;;;8.10;99.90;;;;;;5040234;28;20221;-41
2022/09/22 01:37:53;;;;;;;5.50;4.13;;;8.10;99.90;;;;;;5031091;28;20223;-44
2022/09/22 01:40:26;;;;;;;5.57;4.47;;;8.00;99.90;;;;;;5041411;28;20203;-43
2022/09/22 01:42:59;;;;;;;4.67;4.27;;;8.10;99.90;;;;;;5043442;28;20245;-43
2022/09/22 01:45:30;;;;;;;8.23;4.40;;;8.10;99.90;;;;;;5041685;28;20203;-44
2022/09/22 01:48:04;;;;;;;5.23;4.70;;;8.10;99.90;;;;;;5042987;28;20219;-43
2022/09/22 01:50:35;;;;;;;5.57;4.07;;;8.00;99.90;;;;;;5043475;28;20210;-43
2022/09/22 01:53:08;;;;;;;4.90;4.50;;;8.10;99.90;;;;;;5028691;28;20211;-42
2022/09/22 01:55:38;;;;;;;4.77;4.10;;;8.10;99.90;;;;;;5043654;28;20219;-44
2022/09/22 01:58:08;;;;;;;5.43;4.83;;;8.00;99.90;;;;;;5041172;28;20304;-42
2022/09/22 02:00:40;;;;;;;4.80;4.40;;;8.00;99.90;;;;;;5043903;28;20226;-41
2022/09/22 02:03:12;;;;;;;5.43;4.73;;;8.00;99.90;;;;;;5039980;28;20199;-43
2022/09/22 02:05:43;;;;;;;5.53;4.43;;;8.00;99.90;;;;;;5043475;28;20211;-43
2022/09/22 02:08:15;;;;;;;5.93;4.20;;;8.00;99.90;;;;;;5027225;28;20859;-44
2022/09/22 02:10:45;;;;;;;5.90;4.13;;;8.00;99.90;;;;;;5044111;28;20202;-41
2022/09/22 02:13:12;;;;;;;5.77;5.00;;;8.00;99.90;;;;;;5038570;28;20199;-42
2022/09/22 02:18:30;;;;;;;4.70;4.30;;;7.80;99.90;;;;;;5041974;28;20219;-45
2022/09/22 02:20:57;;;;;;;4.50;4.00;;;7.80;99.90;;;;;;5042094;28;20203;-45
2022/09/22 02:23:25;;;;;;;5.63;3.97;;;7.80;99.90;;;;;;5028482;28;20293;-43
2022/09/22 02:25:53;;;;;;;5.10;4.60;;;7.80;99.90;;;;;;5042732;28;20215;-43
2022/09/22 02:28:22;;;;;;;5.83;4.80;;;7.80;99.90;;;;;;5040717;28;20241;-41
2022/09/22 02:30:53;;;;;;;4.27;3.87;;;7.80;99.90;;;;;;5043472;28;20198;-42
2022/09/22 02:33:22;;;;;;;5.10;4.17;;;7.70;99.90;;;;;;5039668;28;20418;-42
2022/09/22 02:35:55;;;;;;;4.67;4.27;;;7.60;99.90;;;;;;5043613;28;20302;-44
2022/09/22 02:38:29;;;;;;;4.20;3.80;;;7.50;99.90;;;;;;5040846;28;20226;-41
2022/09/22 02:41:02;;;;;;;5.70;4.50;;;7.50;99.90;;;;;;5029623;28;20324;-45
2022/09/22 02:43:37;;;;;;;4.70;4.30;;;7.40;99.90;;;;;;5041317;28;20202;-42
2022/09/22 02:46:14;;;;;;;4.13;3.83;;;7.40;99.90;;;;;;5040633;28;20575;-41
2022/09/22 02:48:46;;;;;;;4.63;4.17;;;7.30;99.90;;;;;;5043520;28;20215;-40
2022/09/22 02:51:14;;;;;;;4.13;3.83;;;7.30;99.90;;;;;;5039146;28;20236;-45
2022/09/22 02:53:41;;;;;;;5.20;3.90;;;7.30;99.90;;;;;;5042330;28;20202;-42
2022/09/22 02:56:07;;;;;;;6.93;4.33;;;7.40;99.90;;;;;;5027086;28;20218;-43
2022/09/22 02:58:34;;;;;;;5.57;3.43;;;7.40;99.90;;;;;;5043174;28;20249;-41
2022/09/22 03:01:01;;;;;;;7.23;4.20;;;7.40;99.90;;;;;;5040877;28;20192;-43
2022/09/22 03:03:30;;;;;;;4.50;4.10;;;7.50;99.90;;;;;;5040818;28;20187;-41
2022/09/22 03:05:57;;;;;;;4.93;4.27;;;7.50;99.90;;;;;;5041867;28;20215;-41
2022/09/22 03:08:24;;;;;;;5.43;4.13;;;7.50;99.90;;;;;;5040874;28;20875;-44
2022/09/22 03:10:51;;;;;;;5.90;4.47;;;7.50;99.90;;;;;;5030690;28;20207;-42
2022/09/22 03:13:17;;;;;;;4.80;4.40;;;7.60;99.90;;;;;;5037400;28;20245;-42
2022/09/22 03:15:46;;;;;;;5.57;4.33;;;7.50;99.90;;;;;;5042614;28;20261;-42
2022/09/22 03:18:13;;;;;;;4.93;4.43;;;7.50;99.90;;;;;;5041266;28;20989;-43
2022/09/22 03:20:41;;;;;;;7.63;4.17;;;7.50;99.90;;;;;;5046984;28;20199;-45
2022/09/22 03:23:08;;;;;;;5.13;4.13;;;7.40;99.90;;;;;;5042864;28;20559;-40
2022/09/22 03:25:35;;;;;;;6.37;4.53;;;7.50;99.90;;;;;;5023520;28;20231;-42
2022/09/22 03:28:02;;;;;;;4.27;3.80;;;7.50;99.90;;;;;;5037654;28;20198;-41
2022/09/22 03:30:30;;;;;;;4.73;4.33;;;7.40;99.90;;;;;;5042352;28;20191;-41
2022/09/22 03:32:57;;;;;;;6.23;4.00;;;7.40;99.90;;;;;;5045852;28;20253;-41
2022/09/22 03:35:24;;;;;;;4.90;4.37;;;7.50;99.90;;;;;;5043504;28;20218;-43
2022/09/22 03:37:52;;;;;;;4.17;3.83;;;7.40;99.90;;;;;;5045238;28;20218;-43
2022/09/22 03:40:20;;;;;;;5.87;4.47;;;7.40;99.90;;;;;;5040413;28;20187;-42
2022/09/22 03:42:48;;;;;;;4.03;3.63;;;7.40;99.90;;;;;;5038453;28;20684;-42
2022/09/22 03:45:15;;;;;;;6.80;3.97;;;7.40;99.90;;;;;;5045137;28;20546;-41
2022/09/22 03:47:42;;;;;;;4.60;4.20;;;7.40;99.90;;;;;;5043412;28;20270;-42
2022/09/22 03:50:10;;;;;;;4.83;3.50;;;7.40;99.90;;;;;;5046695;28;20206;-41
2022/09/22 03:52:38;;;;;;;4.13;3.73;;;7.40;99.90;;;;;;5042322;28;20190;-43
2022/09/22 03:55:08;;;;;;;4.07;3.77;;;7.30;99.90;;;;;;5045441;28;20222;-43
2022/09/22 03:57:35;;;;;;;5.63;4.30;;;7.30;99.90;;;;;;5029896;28;20226;-40
2022/09/22 04:00:03;;;;;;;4.80;3.80;;;7.30;99.90;;;;;;5046013;28;20196;-41
2022/09/22 04:02:38;;;;;;;4.90;4.13;;;7.30;99.90;;;;;;5037380;28;20209;-42
2022/09/22 04:05:07;;;;;;;4.23;3.83;;;7.30;99.90;;;;;;5045245;28;20780;-45
2022/09/22 04:07:33;;;;;;;4.37;3.77;;;7.30;99.90;;;;;;5046045;28;20758;-42
2022/09/22 04:10:01;;;;;;;5.57;4.03;;;7.30;99.90;;;;;;5066087;28;20194;-40
2022/09/22 04:12:28;;;;;;;4.83;4.10;;;7.30;99.90;;;;;;5031566;28;20253;-42
2022/09/22 04:14:55;;;;;;;4.03;3.70;;;7.30;99.90;;;;;;5040720;28;20211;-43
2022/09/22 04:17:22;;;;;;;3.97;3.60;;;7.30;99.90;;;;;;5044218;28;20207;-43
2022/09/22 04:19:49;;;;;;;5.40;4.60;;;7.30;99.90;;;;;;5042538;28;20213;-41
2022/09/22 04:22:15;;;;;;;5.03;3.90;;;7.20;99.90;;;;;;5045178;28;20257;-42
2022/09/22 04:24:42;;;;;;;4.97;3.83;;;7.20;99.90;;;;;;5041595;28;20223;-45
2022/09/22 04:27:09;;;;;;;3.90;3.60;;;7.10;99.90;;;;;;5043385;28;20290;-41
2022/09/22 04:29:37;;;;;;;4.27;3.87;;;7.10;99.90;;;;;;5027140;28;20199;-44
2022/09/22 04:32:04;;;;;;;4.40;4.00;;;7.00;99.90;;;;;;5031751;28;20229;-43
2022/09/22 04:34:31;;;;;;;5.00;3.90;;;7.00;99.90;;;;;;5039215;28;20203;-42
2022/09/22 04:36:58;;;;;;;4.77;3.93;;;7.00;99.90;;;;;;5052546;28;20218;-45
2022/09/22 04:39:27;;;;;;;5.23;4.00;;;7.00;99.90;;;;;;5063054;28;20277;-41
2022/09/22 04:41:54;;;;;;;4.83;4.23;;;7.00;99.90;;;;;;5058319;28;20198;-42
2022/09/22 04:44:21;;;;;;;4.33;3.93;;;7.10;99.90;;;;;;5035052;28;20215;-42
2022/09/22 04:46:49;;;;;;;5.27;3.90;;;7.10;99.90;;;;;;5043495;28;20223;-43
2022/09/22 04:49:17;;;;;;;4.40;4.00;;;7.10;99.90;;;;;;5064749;28;20189;-44
2022/09/22 04:51:44;;;;;;;4.20;3.90;;;7.10;99.90;;;;;;5062358;28;20190;-40
2022/09/22 04:54:11;;;;;;;4.10;3.77;;;7.10;99.90;;;;;;5048114;28;20720;-41
2022/09/22 04:56:37;;;;;;;5.43;3.70;;;7.00;99.90;;;;;;5040029;28;20246;-44
2022/09/22 04:59:04;;;;;;;4.40;4.00;;;7.00;99.90;;;;;;5047459;28;20218;-40
2022/09/22 05:01:31;;;;;;;4.33;3.93;;;7.00;99.90;;;;;;5027103;28;20720;-41
2022/09/22 05:03:59;;;;;;;4.37;3.97;;;6.90;99.90;;;;;;5043813;28;20219;-41
2022/09/22 05:06:26;;;;;;;3.93;3.63;;;6.90;99.90;;;;;;5032572;28;20279;-40
2022/09/22 05:08:54;;;;;;;4.27;3.93;;;7.00;99.90;;;;;;5040349;28;20202;-42
2022/09/22 05:11:22;;;;;;;4.47;4.07;;;7.00;99.90;;;;;;5039684;28;20203;-41
2022/09/22 05:13:49;;;;;;;4.57;4.17;;;7.00;99.90;;;;;;5041986;28;20207;-42
2022/09/22 05:16:16;;;;;;;4.30;3.53;;;7.00;99.90;;;;;;5031807;28;20214;-46
2022/09/22 05:18:43;;;;;;;5.67;4.13;;;6.90;99.90;;;;;;5042498;28;20215;-45
2022/09/22 05:21:11;;;;;;;4.10;3.70;;;6.90;99.90;;;;;;5041277;28;20199;-42
2022/09/22 05:23:38;;;;;;;4.33;3.93;;;7.00;99.90;;;;;;5042923;28;20196;-41
2022/09/22 05:26:05;;;;;;;4.40;4.00;;;7.00;99.90;;;;;;5035693;28;20218;-42
2022/09/22 05:28:32;;;;;;;5.00;4.50;;;7.00;99.90;;;;;;5039907;28;20223;-40
2022/09/22 05:30:59;;;;;;;5.20;4.07;;;7.00;99.90;;;;;;5027002;28;20566;-43
2022/09/22 05:33:26;;;;;;;4.10;3.70;;;7.00;99.90;;;;;;5042664;28;20667;-41
2022/09/22 05:35:53;;;;;;;6.63;4.30;;;6.90;99.90;;;;;;5041406;28;20592;-41
2022/09/22 05:38:21;;;;;;;4.17;3.77;;;6.90;99.90;;;;;;5040213;28;20238;-43
2022/09/22 05:40:48;;;;;;;5.00;4.17;;;6.90;99.90;;;;;;5037523;28;20249;-42
2022/09/22 05:43:15;;;;;;;5.03;4.13;;;6.90;99.90;;;;;;5035668;28;20673;-41
2022/09/22 05:45:43;;;;;;;4.77;4.20;;;6.90;99.90;;;;;;5033467;28;20242;-44
2022/09/22 05:48:10;;;;;;;5.10;4.60;;;6.90;99.90;;;;;;5037819;28;20341;-41
2022/09/22 05:50:37;;;;;;;6.73;4.43;;;7.00;99.90;;;;;;5041693;28;20217;-44
2022/09/22 05:53:05;;;;;;;5.97;4.23;;;7.00;99.90;;;;;;5038119;28;20222;-43
2022/09/22 05:55:34;;;;;;;10.67;4.37;;;7.00;99.90;;;;;;5043014;28;20215;-42
2022/09/22 05:58:01;;;;;;;4.90;4.43;;;7.10;99.90;;;;;;5032261;28;20219;-40
2022/09/22 06:00:29;;;;;;;6.57;4.33;;;7.10;99.90;;;;;;5030234;28;20211;-43
2022/09/22 06:02:56;;;;;;;7.47;5.00;;;7.20;99.90;;;;;;5038893;28;20288;-45
2022/09/22 06:05:23;;;;;;;7.73;3.87;;;7.20;99.90;;;;;;5041788;28;20216;-44
2022/09/22 06:08:00;;;;;;;7.50;4.47;;;7.20;99.90;;;;;;5040870;28;20203;-45
2022/09/22 06:10:28;;;;;;;8.03;4.83;;;7.30;99.90;;;;;;5050918;28;20264;-42
2022/09/22 06:13:00;;;;;;;7.27;4.10;;;7.30;99.90;;;;;;5040227;28;20210;-46
2022/09/22 06:15:27;;;;;;;10.70;4.23;;;7.40;99.90;;;;;;5031944;28;20236;-43
2022/09/22 06:17:54;;;;;;;8.27;4.57;;;7.40;99.90;;;;;;5040575;28;20285;-41
2022/09/22 06:20:22;;;;;;;5.63;4.07;;;7.40;99.90;;;;;;5041094;28;20206;-45
2022/09/22 06:22:48;;;;;;;10.23;4.30;;;7.50;99.90;;;;;;5040159;28;20202;-44
2022/09/22 06:25:15;;;;;;;8.33;4.27;;;7.60;99.90;;;;;;5040244;28;20207;-41
2022/09/22 06:27:42;;;;;;;12.77;4.67;;;7.60;99.90;;;;;;5038102;28;20215;-43
2022/09/22 06:30:12;;;;;;;4.93;4.07;;;7.50;99.90;;;;;;5037476;28;20248;-42
2022/09/22 06:32:39;;;;;;;10.47;4.20;;;7.60;99.90;;;;;;5029236;28;20214;-42
2022/09/22 06:35:07;;;;;;;14.30;4.37;;;7.70;99.90;;;;;;5037267;28;20180;-41
2022/09/22 06:37:34;;;;;;;10.70;4.30;;;7.70;99.90;;;;;;5042805;28;20203;-39
2022/09/22 06:40:01;;;;;;;10.70;4.93;;;7.80;99.90;;;;;;5037806;28;20310;-42
2022/09/22 06:42:28;;;;;;;9.93;4.30;;;7.90;99.90;;;;;;5042008;28;20210;-42
2022/09/22 06:44:56;;;;;;;5.87;4.00;;;8.00;99.90;;;;;;5036803;28;20256;-44
2022/09/22 06:47:25;;;;;;;9.20;3.87;;;8.00;99.90;;;;;;5034092;28;20207;-43
2022/09/22 06:49:53;;;;;;;6.73;4.87;;;8.10;99.90;;;;;;5038742;28;20195;-41
2022/09/22 06:52:19;;;;;;;5.67;3.83;;;8.20;99.90;;;;;;5038091;28;20203;-42
2022/09/22 06:54:47;;;;;;;5.53;4.00;;;8.30;99.90;;;;;;5047685;28;20199;-43
2022/09/22 06:57:13;;;;;;;7.97;4.00;;;8.30;99.90;;;;;;5046590;28;20194;-41
2022/09/22 06:59:40;;;;;;;7.37;4.40;;;8.40;99.90;;;;;;5049677;28;20218;-46
2022/09/22 07:02:07;;;;;;;6.37;4.50;;;8.50;99.90;;;;;;5041008;28;20195;-43
2022/09/22 07:04:35;;;;;;;8.90;4.57;;;8.60;99.90;;;;;;5035426;28;20214;-42
2022/09/22 07:07:02;;;;;;;6.13;4.67;;;8.70;99.90;;;;;;5043927;28;20993;-41
2022/09/22 07:09:29;;;;;;;4.70;4.30;;;8.80;99.90;;;;;;5035786;28;20195;-43
2022/09/22 07:11:56;;;;;;;6.23;4.40;;;8.80;99.90;;;;;;5046646;28;20286;-40
2022/09/22 07:14:24;;;;;;;5.67;4.73;;;8.90;99.90;;;;;;5049501;28;20663;-43
2022/09/22 07:16:51;;;;;;;7.13;5.40;;;9.00;99.90;;;;;;5051317;28;20231;-42
2022/09/22 07:19:18;;;;;;;7.20;5.33;;;9.10;99.90;;;;;;5032939;28;20226;-43
2022/09/22 07:21:46;;;;;;;6.03;5.30;;;9.20;99.90;;;;;;5045014;28;20924;-42
2022/09/22 07:24:13;;;;;;;6.23;5.20;;;9.40;99.90;;;;;;5044693;28;20302;-43
2022/09/22 07:26:42;;;;;;;7.20;5.30;;;9.50;99.90;;;;;;5044563;28;20478;-43
2022/09/22 07:29:12;;;;;;;9.10;6.07;;;9.50;99.90;;;;;;5051153;28;20875;-45
2022/09/22 07:31:40;;;;;;;6.63;5.00;;;9.60;99.90;;;;;;5046204;28;20353;-42
2022/09/22 07:34:06;;;;;;;8.57;6.10;;;9.70;99.90;;;;;;5028837;28;20203;-42
2022/09/22 07:36:35;;;;;;;8.83;6.37;;;9.90;99.90;;;;;;5041306;28;20230;-47
2022/09/22 07:39:07;;;;;;;8.70;6.70;;;10.00;99.90;;;;;;5047658;28;20219;-44
2022/09/22 07:41:40;;;;;;;7.90;6.30;;;10.10;99.90;;;;;;5040094;28;20203;-44
2022/09/22 07:46:53;;;;;;;11.30;8.10;;;10.40;99.90;;;;;;5037689;28;20203;-42
2022/09/22 07:49:21;;;;;;;10.50;7.70;;;10.50;99.90;;;;;;5038269;28;20202;-43
2022/09/22 07:51:50;;;;;;;15.43;7.33;;;10.60;99.90;;;;;;5042175;28;20207;-42
2022/09/22 07:54:18;;;;;;;10.73;7.23;;;10.70;99.90;;;;;;5045631;28;20640;-46
2022/09/22 07:56:45;;;;;;;7.10;6.47;;;10.90;99.90;;;;;;5043179;28;20231;-42
2022/09/22 07:59:15;;;;;;;7.17;6.47;;;11.00;99.90;;;;;;5044797;28;20207;-45
2022/09/22 08:01:43;;;;;;;9.27;7.57;;;11.10;99.90;;;;;;5042222;28;20201;-43
2022/09/22 08:04:14;;;;;;;9.57;6.57;;;11.30;99.90;;;;;;5036958;28;20203;-47
2022/09/22 08:06:42;;;;;;;7.93;6.40;;;11.40;99.90;;;;;;5029944;28;20219;-43
2022/09/22 08:09:10;;;;;;;10.77;5.93;;;11.50;99.90;;;;;;5041729;28;20199;-45
2022/09/22 08:11:38;;;;;;;6.40;5.90;;;11.70;99.90;;;;;;5039364;28;20198;-44
2022/09/22 08:14:07;;;;;;;8.00;5.93;;;11.80;99.90;;;;;;5044434;28;20245;-41
2022/09/22 08:16:37;;;;;;;6.87;5.10;;;11.90;99.90;;;;;;5036795;28;20408;-43
2022/09/22 08:19:09;;;;;;;8.73;5.30;;;12.00;99.90;;;;;;5039422;28;20247;-43
2022/09/22 08:21:37;;;;;;;7.00;5.23;;;12.10;99.90;;;;;;5028345;28;20215;-42
2022/09/22 08:24:04;;;;;;;5.03;4.40;;;12.30;99.90;;;;;;5040218;28;20211;-43
2022/09/22 08:26:31;;;;;;;9.67;5.47;;;12.50;99.90;;;;;;5048051;28;20226;-42
2022/09/22 08:28:59;;;;;;;5.73;5.00;;;12.60;99.90;;;;;;5047716;28;20310;-41
2022/09/22 08:31:27;;;;;;;6.33;5.20;;;12.70;99.90;;;;;;5036981;28;20671;-43
2022/09/22 08:33:56;;;;;;;10.60;4.37;;;12.80;99.90;;;;;;5052072;28;20212;-43
2022/09/22 08:36:24;;;;;;;5.50;5.00;;;13.00;99.90;;;;;;5030028;28;20218;-42
2022/09/22 08:38:51;;;;;;;5.67;4.17;;;13.10;99.90;;;;;;5038038;28;20226;-43
2022/09/22 08:41:26;;;;;;;7.90;4.30;;;13.20;99.90;;;;;;5041779;28;20226;-46
2022/09/22 08:43:55;;;;;;;3.90;3.50;;;13.30;99.90;;;;;;5039127;28;20203;-45
2022/09/22 08:46:29;;;;;;;4.27;3.87;;;13.50;99.90;;;;;;5041350;28;20227;-48
2022/09/22 08:51:56;;;;;;;8.37;4.57;;;13.70;99.90;;;;;;5018381;28;20223;-42
2022/09/22 08:54:27;;;;;;;4.47;3.43;;;13.80;99.90;;;;;;5023050;28;20706;-43
2022/09/22 08:57:08;;;;;;;6.33;3.07;;;13.90;99.90;;;;;;5044591;28;20223;-43
2022/09/22 08:59:43;;;;;;;6.90;3.30;;;14.00;99.90;;;;;;5048051;28;20285;-42
2022/09/22 09:02:48;;;;;;;4.10;2.90;;;14.10;99.90;;;;;;5040518;28;20191;-42
2022/09/22 09:05:46;;;;;;;6.77;3.50;;;14.10;99.90;;;;;;4991397;28;20297;-44
2022/09/22 09:08:40;;;;;;;4.50;2.93;;;14.30;99.90;;;;;;4983428;28;20863;-42
2022/09/22 09:11:23;;;;;;;5.60;2.30;;;14.30;99.90;;;;;;5027533;28;20868;-43
2022/09/22 09:14:04;;;;;;;5.77;2.53;;;14.50;99.90;;;;;;5037086;28;20230;-42
2022/09/22 09:16:44;;;;;;;5.27;2.80;;;14.60;99.90;;;;;;5038739;28;21003;-42
2022/09/22 09:19:16;;;;;;;3.63;2.47;;;14.70;99.90;;;;;;5037085;28;20215;-41
2022/09/22 09:21:50;;;;;;;6.30;3.63;;;14.70;99.90;;;;;;5038070;28;22247;-43
2022/09/22 09:24:26;;;;;;;4.40;2.97;;;14.80;99.90;;;;;;5026147;28;20214;-48
2022/09/22 09:26:55;;;;;;;5.87;3.40;;;14.90;99.90;;;;;;5044617;28;20242;-44
2022/09/22 09:29:26;;;;;;;2.23;1.70;;;15.00;99.90;;;;;;5037572;28;20199;-45
2022/09/22 09:31:56;;;;;;;5.53;1.70;;;15.10;99.90;;;;;;5024216;28;20287;-43
2022/09/22 09:34:28;;;;;;;5.00;2.00;;;15.20;99.90;;;;;;5035720;28;20543;-45
2022/09/22 09:37:06;;;;;;;4.53;1.97;;;15.20;99.90;;;;;;5048003;28;20222;-42
2022/09/22 09:39:36;;;;;;;6.63;1.90;;;15.30;99.90;;;;;;5022156;28;21783;-44
2022/09/22 09:42:17;;;;;;;3.47;2.27;;;15.40;99.90;;;;;;5043422;28;20217;-41
2022/09/22 09:44:45;;;;;;;1.97;1.70;;;15.50;99.90;;;;;;5037927;28;20210;-43
2022/09/22 09:47:20;;;;;;;6.70;2.60;;;15.80;99.90;;;;;;5059120;28;20243;-42
2022/09/22 09:49:50;;;;;;;4.20;1.70;;;15.80;99.90;;;;;;5039743;28;20206;-41
2022/09/22 09:52:18;;;;;;;3.13;1.23;;;15.70;99.90;;;;;;5040692;28;20222;-44
2022/09/22 09:54:46;;;;;;;5.23;1.50;;;15.80;99.90;;;;;;5037109;28;20202;-42
2022/09/22 09:57:14;;;;;;;2.67;0.93;;;15.90;99.90;;;;;;5028096;28;20601;-42
2022/09/22 10:02:48;;;;;;;2.27;1.47;;;15.90;99.90;;;;;;5036950;28;20215;-41
2022/09/22 10:05:25;;;;;;;3.13;1.30;;;16.00;99.90;;;;;;5038999;28;20226;-42
2022/09/22 10:07:57;;;;;;;4.27;1.10;;;16.00;99.90;;;;;;5050918;28;20203;-47
2022/09/22 10:10:32;;;;;;;3.53;1.40;;;16.10;99.90;;;;;;5038347;28;20226;-41
2022/09/22 10:13:23;;;;;;;4.67;1.20;;;16.10;99.90;;;;;;5041875;28;20205;-43
2022/09/22 10:16:06;;;;;;;2.87;1.50;;;16.00;99.90;;;;;;5037866;28;20225;-43
2022/09/22 10:18:35;;;;;;;3.30;1.10;;;16.10;99.90;;;;;;5046690;28;20190;-42
2022/09/22 10:21:05;;;;;;;3.87;1.50;;;16.20;99.90;;;;;;5047793;28;20219;-43
2022/09/22 10:23:33;;;;;;;3.90;2.03;;;16.30;99.90;;;;;;5033407;28;20222;-44
2022/09/22 10:26:20;;;;;;;2.30;1.90;;;16.40;99.90;;;;;;5039233;28;20269;-41
2022/09/22 10:29:08;;;;;;;4.53;1.40;;;16.30;99.90;;;;;;5031611;28;20257;-41
2022/09/22 10:31:37;;;;;;;4.13;1.60;;;16.20;99.90;;;;;;5034850;28;20213;-39
2022/09/22 10:34:06;;;;;;;3.13;1.43;;;16.30;99.90;;;;;;5046338;28;20211;-41
2022/09/22 10:36:43;;;;;;;3.57;1.27;;;16.30;99.90;;;;;;5044347;28;20226;-43
2022/09/22 10:39:17;;;;;;;6.63;1.77;;;16.40;99.90;;;;;;5043502;28;20199;-44
2022/09/22 10:41:46;;;;;;;4.60;1.03;;;16.50;99.60;;;;;;5045710;28;20191;-39
2022/09/22 10:44:16;;;;;;;6.67;1.40;;;16.50;99.70;;;;;;5027039;28;20203;-43
2022/09/22 10:47:07;;;;;;;3.97;1.23;;;16.60;99.20;;;;;;5036307;28;20229;-38
2022/09/22 10:49:57;;;;;;;7.77;1.13;;;16.70;98.20;;;;;;5044383;28;20182;-42
2022/09/22 10:52:34;;;;;;;3.63;0.90;;;16.80;97.90;;;;;;5038303;28;20235;-43
2022/09/22 10:55:17;;;;;;;2.27;1.17;;;16.90;98.40;;;;;;5037372;28;20722;-44
2022/09/22 10:58:00;;;;;;;5.37;1.33;;;17.00;98.60;;;;;;5037756;28;20195;-39
2022/09/22 11:00:28;;;;;;;6.07;1.13;;;17.20;97.30;;;;;;5025084;28;20245;-40
2022/09/22 11:03:28;;;;;;;6.20;1.63;;;17.20;96.80;;;;;;5039785;28;20586;-41
2022/09/22 11:15:02;;;;;;;4.87;1.10;;;17.40;95.10;;;;;;5026113;28;20261;-40
2022/09/22 11:17:50;;;;;;;3.40;1.00;;;17.30;94.80;;;;;;5029952;28;20786;-43
2022/09/22 11:20:33;;;;;;;3.77;1.40;;;17.20;94.30;;;;;;5044465;28;20233;-44
2022/09/22 11:23:15;;;;;;;3.63;1.10;;;17.10;94.80;;;;;;5051868;28;20689;-40
2022/09/22 11:25:56;;;;;;;5.13;1.80;;;17.00;95.00;;;;;;5038062;28;20249;-41
2022/09/22 11:28:38;;;;;;;2.03;1.27;;;17.10;94.60;;;;;;5032774;28;20207;-39
2022/09/22 11:31:05;;;;;;;1.93;1.00;;;17.10;94.30;;;;;;5025785;28;20226;-39
2022/09/22 11:34:05;;;;;;;3.23;1.10;;;17.30;94.40;;;;;;5028427;28;21516;-41
2022/09/22 11:36:43;;;;;;;3.90;1.10;;;17.40;94.00;;;;;;5035613;28;20226;-43
2022/09/22 11:39:19;;;;;;;1.93;0.57;;;17.60;94.10;;;;;;5039025;28;20222;-42
2022/09/22 11:41:55;;;;;;;1.57;0.93;;;17.70;92.80;;;;;;5043606;28;20287;-39
2022/09/22 11:44:35;;;;;;;3.17;1.40;;;17.80;92.90;;;;;;5035647;28;20211;-39
2022/09/22 11:47:21;;;;;;;6.53;1.20;;;17.80;92.60;;;;;;5030195;28;20227;-40
2022/09/22 11:50:13;;;;;;;2.57;1.00;;;17.80;92.20;;;;;;5050270;28;20206;-41
2022/09/22 11:52:59;;;;;;;3.83;1.40;;;17.80;92.40;;;;;;5038209;28;20471;-44
2022/09/22 11:55:35;;;;;;;1.97;0.77;;;17.80;92.60;;;;;;5035438;28;20238;-42
2022/09/22 11:58:07;;;;;;;1.53;1.20;;;17.80;92.80;;;;;;5044781;28;20202;-42
2022/09/22 12:00:36;;;;;;;4.50;1.40;;;17.80;92.80;;;;;;5025268;28;20234;-43
2022/09/22 12:03:08;;;;;;;2.77;1.67;;;17.70;92.40;;;;;;5042085;28;20274;-41
2022/09/22 12:05:40;;;;;;;3.13;1.00;;;17.70;92.20;;;;;;5037362;28;20219;-43
2022/09/22 12:08:12;;;;;;;2.40;1.30;;;17.70;92.60;;;;;;5042981;28;20199;-43
2022/09/22 12:10:43;;;;;;;4.33;0.90;;;17.80;92.70;;;;;;5037254;28;20203;-45
2022/09/22 12:13:14;;;;;;;2.97;1.57;;;18.00;92.50;;;;;;5050188;28;20207;-42
2022/09/22 12:15:48;;;;;;;2.27;1.03;;;18.00;92.10;;;;;;5045847;28;20229;-42
2022/09/22 12:18:21;;;;;;;1.73;0.93;;;18.00;92.10;;;;;;5025511;28;20215;-42
2022/09/22 12:20:57;;;;;;;3.47;1.00;;;18.20;92.20;;;;;;5039044;28;20359;-43
2022/09/22 12:23:39;;;;;;;2.07;1.10;;;18.30;92.30;;;;;;5038753;28;20286;-43
2022/09/22 12:26:08;;;;;;;3.77;1.20;;;18.40;91.90;;;;;;5037340;28;20224;-41
2022/09/22 12:28:41;;;;;;;2.50;0.80;;;18.40;92.10;;;;;;5036256;28;22884;-41
2022/09/22 12:31:12;;;;;;;2.03;0.90;;;18.40;92.50;;;;;;5045082;28;20253;-39
2022/09/22 12:33:47;;;;;;;2.67;0.80;;;18.50;92.50;;;;;;5026345;28;21000;-41
2022/09/22 12:36:15;;;;;;;2.47;0.87;;;18.60;92.00;;;;;;5042829;28;20367;-40
2022/09/22 12:38:43;;;;;;;2.90;1.20;;;18.70;91.60;;;;;;5041907;28;20287;-45
2022/09/22 12:41:17;;;;;;;4.47;1.00;;;18.60;91.30;;;;;;5046127;28;20619;-43
2022/09/22 12:43:47;;;;;;;3.10;1.20;;;18.50;91.00;;;;;;5049838;28;20311;-40
2022/09/22 12:46:22;;;;;;;1.17;0.80;;;18.50;92.20;;;;;;5043223;28;20568;-45
2022/09/22 12:48:49;;;;;;;4.23;1.20;;;18.60;91.90;;;;;;5030606;28;20215;-42
2022/09/22 12:51:29;;;;;;;1.50;0.80;;;18.70;91.90;;;;;;5045367;28;20195;-42
2022/09/22 12:54:28;;;;;;;4.43;1.60;;;18.70;91.40;;;;;;5045789;28;20199;-42
2022/09/22 12:56:57;;;;;;;2.97;1.00;;;18.60;91.90;;;;;;5035725;28;20297;-39
2022/09/22 12:59:54;;;;;;;2.63;0.90;;;18.50;91.80;;;;;;5040089;28;20206;-43
2022/09/22 13:02:29;;;;;;;3.10;1.00;;;18.30;91.20;;;;;;5030730;28;20226;-40
2022/09/22 13:05:28;;;;;;;2.00;1.20;;;18.20;91.40;;;;;;5025964;28;20233;-43
2022/09/22 13:07:55;;;;;;;3.37;1.03;;;18.30;91.20;;;;;;5047413;28;20211;-40
2022/09/22 13:10:41;;;;;;;3.63;1.00;;;18.30;91.60;;;;;;5041730;28;20241;-45
2022/09/22 13:13:20;;;;;;;2.13;0.90;;;18.40;91.80;;;;;;5046428;28;20268;-40
2022/09/22 13:16:00;;;;;;;7.13;1.33;;;18.40;92.10;;;;;;5057869;28;20744;-42
2022/09/22 13:18:33;;;;;;;4.97;0.90;;;18.40;91.40;;;;;;5025057;28;20210;-39
2022/09/22 13:21:01;;;;;;;5.17;0.87;;;18.30;91.60;;;;;;5039418;28;20714;-42
2022/09/22 13:23:28;;;;;;;1.93;1.07;;;18.30;92.30;;;;;;5036849;28;20583;-41
2022/09/22 13:26:04;;;;;;;3.03;1.37;;;18.70;91.70;;;;;;5035508;28;20214;-43
2022/09/22 13:28:30;;;;;;;3.17;1.10;;;18.80;90.90;;;;;;5039680;28;20206;-41
2022/09/22 13:31:09;;;;;;;2.83;1.10;;;18.60;90.80;;;;;;5040225;28;20909;-41
2022/09/22 13:33:36;;;;;;;4.17;0.83;;;18.40;91.10;;;;;;5022846;28;23788;-42
2022/09/22 13:36:07;;;;;;;193.07;39.63;;;18.20;91.00;;;;;;5043704;28;20211;-39